createdAt,value
2019-03-13T00:01:34.608Z,68.62
2019-03-13T00:04:03.217Z,69.01
2019-03-13T00:06:31.665Z,69.22
2019-03-13T00:09:00.344Z,69.29
2019-03-13T00:11:32.051Z,69.06
2019-03-13T00:14:00.684Z,69.38
2019-03-13T00:16:29.816Z,69.76
2019-03-13T00:18:58.295Z,69.59
2019-03-13T00:21:26.857Z,69.84
2019-03-13T00:23:55.468Z,70.28
2019-03-13T00:26:23.913Z,70.12
2019-03-13T00:28:52.553Z,70.92
2019-03-13T00:31:21.522Z,75.78
2019-03-13T00:33:50.500Z,78.62
2019-03-13T00:36:18.990Z,79.52
2019-03-13T00:38:49.060Z,80.97
2019-03-13T00:41:17.689Z,80.22
2019-03-13T00:43:46.224Z,80.77
2019-03-13T00:46:14.779Z,81.12
2019-03-13T00:48:43.510Z,81.44
2019-03-13T00:51:16.563Z,81.56
2019-03-13T00:53:45.113Z,81.42
2019-03-13T00:56:13.705Z,81.57
2019-03-13T00:58:43.502Z,81.98
2019-03-13T01:01:29.642Z,81.68
2019-03-13T01:04:00.864Z,81.03
2019-03-13T01:06:30.996Z,81.06
2019-03-13T01:08:59.586Z,80.89
2019-03-13T01:11:28.192Z,80.81
2019-03-13T01:13:56.619Z,80.82
2019-03-13T01:16:25.255Z,80.37
2019-03-13T01:18:56.468Z,80.69
2019-03-13T01:21:25.005Z,80.61
2019-03-13T01:23:53.600Z,80.38
2019-03-13T01:26:22.098Z,79.60
2019-03-13T01:28:51.870Z,80.17
2019-03-13T01:31:22.128Z,79.24
2019-03-13T01:33:51.016Z,79.05
2019-03-13T01:36:20.958Z,79.01
2019-03-13T01:38:52.553Z,79.39
2019-03-13T01:41:21.274Z,79.34
2019-03-13T01:43:49.856Z,79.25
2019-03-13T01:46:18.336Z,78.75
2019-03-13T01:48:46.841Z,78.07
2019-03-13T01:51:15.502Z,78.49
2019-03-13T01:53:44.136Z,78.21
2019-03-13T01:56:12.592Z,77.68
2019-03-13T01:58:41.358Z,77.92
2019-03-13T02:01:11.538Z,77.07
2019-03-13T02:03:40.119Z,77.09
2019-03-13T02:06:08.723Z,76.61
2019-03-13T02:08:37.228Z,76.46
2019-03-13T02:11:05.760Z,76.31
2019-03-13T02:13:34.292Z,76.00
2019-03-13T02:16:02.856Z,75.79
2019-03-13T02:18:31.305Z,75.59
2019-03-13T02:20:59.790Z,75.96
2019-03-13T02:23:28.612Z,75.35
2019-03-13T02:25:57.113Z,75.21
2019-03-13T02:28:25.695Z,74.86
2019-03-13T02:30:54.249Z,74.79
2019-03-13T02:33:23.107Z,74.64
2019-03-13T02:35:51.569Z,74.87
2019-03-13T02:38:20.178Z,74.93
2019-03-13T02:40:48.642Z,74.55
2019-03-13T02:43:17.185Z,74.40
2019-03-13T02:45:45.652Z,73.75
2019-03-13T02:48:14.325Z,74.00
2019-03-13T02:50:42.816Z,74.26
2019-03-13T02:53:11.286Z,73.95
2019-03-13T02:55:39.895Z,74.16
2019-03-13T02:58:08.349Z,74.23
2019-03-13T03:00:47.663Z,74.19
2019-03-13T03:03:20.941Z,74.60
2019-03-13T03:05:49.457Z,73.97
2019-03-13T03:08:17.950Z,74.12
2019-03-13T03:10:46.460Z,74.04
2019-03-13T03:13:14.914Z,74.15
2019-03-13T03:15:43.407Z,73.68
2019-03-13T03:18:11.975Z,73.58
2019-03-13T03:20:40.463Z,73.62
2019-03-13T03:23:08.914Z,74.27
2019-03-13T03:25:37.546Z,73.25
2019-03-13T03:28:06.094Z,73.51
2019-03-13T03:30:34.722Z,73.42
2019-03-13T03:33:03.219Z,73.31
2019-03-13T03:35:31.772Z,72.88
2019-03-13T03:38:00.293Z,73.69
2019-03-13T03:40:28.780Z,73.04
2019-03-13T03:42:57.350Z,73.33
2019-03-13T03:45:25.818Z,73.06
2019-03-13T03:47:54.314Z,72.85
2019-03-13T03:50:22.910Z,73.25
2019-03-13T03:52:51.395Z,72.63
2019-03-13T03:55:20.036Z,72.87
2019-03-13T03:57:48.560Z,73.39
2019-03-13T04:00:20.678Z,73.17
2019-03-13T04:02:49.320Z,73.02
2019-03-13T04:05:18.065Z,72.76
2019-03-13T04:07:46.709Z,72.62
2019-03-13T04:10:15.950Z,72.67
2019-03-13T04:12:44.605Z,72.78
2019-03-13T04:15:16.982Z,72.89
2019-03-13T04:17:45.527Z,72.61
2019-03-13T04:20:15.184Z,72.43
2019-03-13T04:22:43.742Z,72.51
2019-03-13T04:25:46.242Z,71.81
2019-03-13T04:28:14.709Z,72.41
2019-03-13T04:30:43.248Z,72.60
2019-03-13T04:33:11.728Z,72.95
2019-03-13T04:35:40.276Z,72.79
2019-03-13T04:38:08.775Z,73.05
2019-03-13T04:40:37.252Z,72.12
2019-03-13T04:43:05.724Z,72.50
2019-03-13T04:45:34.208Z,72.79
2019-03-13T04:48:02.666Z,72.24
2019-03-13T04:50:31.172Z,71.59
2019-03-13T04:53:21.369Z,72.13
2019-03-13T04:55:52.425Z,72.50
2019-03-13T04:58:20.213Z,73.19
2019-03-13T05:00:48.771Z,73.09
2019-03-13T05:03:18.764Z,73.52
2019-03-13T05:05:48.937Z,72.95
2019-03-13T05:08:45.003Z,72.86
2019-03-13T05:11:06.374Z,73.26
2019-03-13T05:13:34.897Z,72.98
2019-03-13T05:16:03.461Z,73.09
2019-03-13T05:18:31.947Z,73.32
2019-03-13T05:21:00.432Z,73.26
2019-03-13T05:23:28.878Z,72.45
2019-03-13T05:25:57.400Z,72.90
2019-03-13T05:28:25.881Z,72.61
2019-03-13T05:30:54.428Z,72.64
2019-03-13T05:33:22.879Z,72.57
2019-03-13T05:35:51.520Z,72.10
2019-03-13T05:38:19.986Z,71.93
2019-03-13T05:40:48.445Z,72.53
2019-03-13T05:43:16.899Z,72.75
2019-03-13T05:45:45.369Z,72.76
2019-03-13T05:48:13.848Z,71.97
2019-03-13T05:50:42.391Z,72.59
2019-03-13T05:53:10.856Z,72.44
2019-03-13T05:55:39.329Z,72.64
2019-03-13T05:58:07.803Z,72.71
2019-03-13T06:00:36.332Z,72.78
2019-03-13T06:03:07.592Z,72.06
2019-03-13T06:05:37.858Z,72.24
2019-03-13T06:08:06.323Z,71.63
2019-03-13T06:10:34.785Z,72.02
2019-03-13T06:13:03.264Z,71.86
2019-03-13T06:15:31.809Z,71.89
2019-03-13T06:18:00.303Z,71.51
2019-03-13T06:20:28.769Z,70.71
2019-03-13T06:22:57.266Z,71.36
2019-03-13T06:25:25.859Z,71.15
2019-03-13T06:27:54.357Z,70.80
2019-03-13T06:30:23.025Z,70.94
2019-03-13T06:32:51.501Z,71.01
2019-03-13T06:35:23.436Z,71.12
2019-03-13T06:37:50.304Z,70.71
2019-03-13T06:40:20.382Z,71.20
2019-03-13T06:42:48.872Z,70.98
2019-03-13T06:45:17.601Z,69.83
2019-03-13T06:47:46.261Z,69.82
2019-03-13T06:50:22.902Z,70.55
2019-03-13T06:52:51.403Z,70.82
2019-03-13T06:55:20.013Z,71.35
2019-03-13T06:57:48.536Z,70.41
2019-03-13T07:00:20.740Z,70.86
2019-03-13T07:03:02.688Z,70.83
2019-03-13T07:05:35.818Z,70.68
2019-03-13T07:08:14.898Z,70.32
2019-03-13T07:11:01.288Z,70.28
2019-03-13T07:13:46.549Z,70.60
2019-03-13T07:16:22.636Z,70.07
2019-03-13T07:18:52.830Z,70.20
2019-03-13T07:21:23.583Z,70.94
2019-03-13T07:23:53.813Z,70.62
2019-03-13T07:26:26.350Z,69.85
2019-03-13T07:29:12.452Z,70.00
2019-03-13T07:31:42.656Z,69.54
2019-03-13T07:34:15.356Z,69.32
2019-03-13T07:36:48.324Z,70.17
2019-03-13T07:39:18.461Z,68.90
2019-03-13T07:41:57.608Z,69.56
2019-03-13T07:44:30.470Z,69.25
2019-03-13T07:47:00.581Z,68.69
2019-03-13T07:49:45.353Z,67.91
2019-03-13T07:52:32.978Z,68.32
2019-03-13T07:55:19.132Z,69.39
2019-03-13T07:58:01.420Z,68.99
2019-03-13T08:00:37.664Z,68.50
2019-03-13T08:03:19.897Z,70.03
2019-03-13T08:06:06.208Z,70.79
2019-03-13T08:08:39.026Z,69.78
2019-03-13T08:11:24.492Z,70.89
2019-03-13T08:13:54.691Z,71.67
2019-03-13T08:16:24.818Z,71.54
2019-03-13T08:19:07.134Z,71.04
2019-03-13T08:21:43.158Z,70.65
2019-03-13T08:24:22.356Z,70.93
2019-03-13T08:26:52.491Z,70.50
2019-03-13T08:29:22.688Z,71.00
2019-03-13T08:31:55.847Z,70.16
2019-03-13T08:34:31.658Z,69.20
2019-03-13T08:37:07.491Z,69.82
2019-03-13T08:39:40.307Z,69.44
2019-03-13T08:42:26.600Z,69.92
2019-03-13T08:45:07.705Z,69.68
2019-03-13T08:47:46.522Z,69.42
2019-03-13T08:50:25.453Z,69.07
2019-03-13T08:53:13.921Z,69.23
2019-03-13T08:55:52.829Z,69.73
2019-03-13T08:58:34.972Z,68.34
2019-03-13T09:01:08.152Z,68.20
2019-03-13T09:03:38.271Z,68.46
2019-03-13T09:06:11.259Z,68.27
2019-03-13T09:08:41.408Z,68.52
2019-03-13T09:11:27.855Z,68.05
2019-03-13T09:13:58.078Z,68.43
2019-03-13T09:16:28.272Z,67.18
2019-03-13T09:19:04.161Z,68.27
2019-03-13T09:21:34.315Z,68.67
2019-03-13T09:24:16.615Z,68.50
2019-03-13T09:26:46.771Z,68.13
2019-03-13T09:29:22.666Z,67.64
2019-03-13T09:31:52.925Z,67.80
2019-03-13T09:34:39.456Z,68.39
2019-03-13T09:37:21.670Z,67.63
2019-03-13T09:40:00.575Z,66.38
2019-03-13T09:42:47.287Z,67.46
2019-03-13T09:45:17.569Z,67.56
2019-03-13T09:47:53.257Z,67.26
2019-03-13T09:50:25.907Z,66.43
2019-03-13T09:53:07.640Z,67.30
2019-03-13T09:55:53.975Z,67.58
2019-03-13T09:58:27.235Z,65.98
2019-03-13T10:01:09.360Z,67.15
2019-03-13T10:03:42.008Z,67.50
2019-03-13T10:06:12.166Z,66.19
2019-03-13T10:08:48.433Z,67.20
2019-03-13T10:11:18.576Z,66.63
2019-03-13T10:14:03.641Z,68.25
2019-03-13T10:16:42.040Z,67.98
2019-03-13T10:19:12.087Z,67.97
2019-03-13T10:21:44.911Z,67.90
2019-03-13T10:24:20.711Z,67.39
2019-03-13T10:27:02.453Z,67.59
2019-03-13T10:29:32.549Z,67.63
2019-03-13T10:32:02.837Z,68.18
2019-03-13T10:34:35.831Z,67.96
2019-03-13T10:37:11.864Z,67.99
2019-03-13T10:39:41.957Z,68.10
2019-03-13T10:42:20.613Z,68.12
2019-03-13T10:44:50.736Z,68.42
2019-03-13T10:47:37.098Z,68.35
2019-03-13T10:50:09.608Z,67.20
2019-03-13T10:52:51.730Z,68.36
2019-03-13T10:55:40.416Z,69.10
2019-03-13T10:58:16.443Z,67.85
2019-03-13T11:00:46.580Z,67.96
2019-03-13T11:03:16.788Z,69.18
2019-03-13T11:05:56.076Z,69.52
2019-03-13T11:11:13.332Z,69.79
2019-03-13T11:13:43.476Z,70.85
2019-03-13T11:16:22.561Z,72.35
2019-03-13T11:19:01.544Z,75.11
2019-03-13T11:21:48.208Z,77.33
2019-03-13T11:24:21.281Z,76.66
2019-03-13T11:26:54.190Z,76.71
2019-03-13T11:29:24.401Z,77.19
2019-03-13T11:32:00.345Z,77.16
2019-03-13T11:34:36.356Z,78.87
2019-03-13T11:37:18.407Z,81.78
2019-03-13T11:39:51.256Z,82.31
2019-03-13T11:45:30.186Z,82.83
2019-03-13T11:48:12.288Z,81.13
2019-03-13T11:50:48.244Z,80.33
2019-03-13T11:53:21.100Z,82.55
2019-03-13T11:55:51.273Z,82.70
2019-03-13T11:58:27.363Z,82.88
2019-03-13T12:00:57.628Z,82.96
2019-03-13T12:03:30.527Z,82.43
2019-03-13T12:06:00.731Z,82.47
2019-03-13T12:08:47.026Z,81.23
2019-03-13T12:11:33.132Z,81.56
2019-03-13T12:14:03.330Z,82.03
2019-03-13T12:19:34.963Z,80.42
2019-03-13T12:22:10.819Z,81.72
2019-03-13T12:27:52.077Z,81.91
2019-03-13T12:30:37.520Z,81.30
2019-03-13T12:33:07.623Z,80.90
2019-03-13T12:35:54.392Z,80.97
2019-03-13T12:38:27.614Z,81.54
2019-03-13T12:41:14.073Z,80.86
2019-03-13T12:43:44.199Z,80.90
2019-03-13T12:46:17.279Z,81.35
2019-03-13T12:48:53.815Z,80.51
2019-03-13T12:51:40.108Z,81.33
2019-03-13T12:54:19.199Z,81.25
2019-03-13T12:57:01.009Z,81.34
2019-03-13T12:59:49.323Z,80.93
2019-03-13T13:02:24.927Z,80.36
2019-03-13T13:05:07.125Z,80.27
2019-03-13T13:07:42.996Z,79.58
2019-03-13T13:10:19.272Z,79.15
2019-03-13T13:12:52.417Z,79.48
2019-03-13T13:15:38.645Z,80.06
2019-03-13T13:18:25.085Z,79.95
2019-03-13T13:20:53.556Z,79.46
2019-03-13T13:23:22.021Z,79.82
2019-03-13T13:25:50.597Z,79.47
2019-03-13T13:28:19.219Z,79.12
2019-03-13T13:30:47.750Z,80.40
2019-03-13T13:33:16.306Z,79.66
2019-03-13T13:35:44.758Z,78.74
2019-03-13T13:38:13.225Z,78.82
2019-03-13T13:40:42.572Z,79.22
2019-03-13T13:43:11.069Z,79.31
2019-03-13T13:45:42.297Z,78.82
2019-03-13T13:48:12.325Z,79.68
2019-03-13T13:50:40.775Z,79.32
2019-03-13T13:53:09.249Z,79.52
2019-03-13T13:55:37.866Z,79.27
2019-03-13T13:58:06.397Z,79.48
2019-03-13T14:00:34.951Z,78.91
2019-03-13T14:03:03.426Z,77.70
2019-03-13T14:05:31.926Z,77.68
2019-03-13T14:08:00.415Z,78.72
2019-03-13T14:10:29.034Z,78.96
2019-03-13T14:12:57.743Z,77.77
2019-03-13T14:15:26.301Z,78.66
2019-03-13T14:17:54.828Z,78.40
2019-03-13T14:20:23.441Z,77.72
2019-03-13T14:22:52.029Z,77.74
2019-03-13T14:25:20.711Z,78.37
2019-03-13T14:27:49.237Z,78.75
2019-03-13T14:30:19.897Z,77.01
2019-03-13T14:32:48.348Z,77.96
2019-03-13T14:35:16.941Z,78.34
2019-03-13T14:37:45.465Z,78.13
2019-03-13T14:40:19.289Z,77.56
2019-03-13T14:42:47.804Z,77.07
2019-03-13T14:45:57.911Z,77.29
2019-03-13T14:48:26.434Z,78.00
2019-03-13T14:50:54.991Z,77.07
2019-03-13T14:53:23.435Z,77.34
2019-03-13T14:55:52.018Z,76.85
2019-03-13T14:58:20.541Z,76.70
2019-03-13T15:00:50.667Z,76.84
2019-03-13T15:03:19.143Z,76.00
2019-03-13T15:05:47.619Z,76.15
2019-03-13T15:08:16.070Z,75.93
2019-03-13T15:10:45.460Z,74.96
2019-03-13T15:13:13.921Z,77.80
2019-03-13T15:15:45.340Z,79.27
2019-03-13T15:18:13.803Z,78.99
2019-03-13T15:20:42.272Z,79.94
2019-03-13T15:23:10.874Z,79.71
2019-03-13T15:25:39.394Z,81.13
2019-03-13T15:28:07.867Z,81.82
2019-03-13T15:30:36.408Z,82.96
2019-03-13T15:33:04.964Z,82.54
2019-03-13T15:35:33.423Z,83.80
2019-03-13T15:38:04.695Z,83.35
2019-03-13T15:40:38.164Z,83.76
2019-03-13T15:43:11.134Z,84.22
2019-03-13T15:45:39.685Z,83.99
2019-03-13T15:48:08.191Z,84.91
2019-03-13T15:50:36.716Z,85.27
2019-03-13T15:53:05.273Z,84.91
2019-03-13T15:55:36.549Z,85.15
2019-03-13T15:58:05.171Z,85.27
2019-03-13T16:00:33.849Z,85.32
2019-03-13T16:03:02.412Z,85.02
2019-03-13T16:05:30.879Z,85.06
2019-03-13T16:07:59.436Z,84.64
2019-03-13T16:10:27.917Z,84.99
2019-03-13T16:12:58.122Z,84.71
2019-03-13T16:15:29.380Z,84.88
2019-03-13T16:17:57.829Z,84.78
2019-03-13T16:20:26.365Z,84.48
2019-03-13T16:22:59.062Z,84.52
2019-03-13T16:25:27.671Z,83.81
2019-03-13T16:27:56.205Z,84.23
2019-03-13T16:30:28.053Z,83.95
2019-03-13T16:32:56.572Z,84.31
2019-03-13T16:35:27.841Z,85.21
2019-03-13T16:37:56.383Z,85.81
2019-03-13T16:40:24.929Z,86.45
2019-03-13T16:42:53.413Z,86.12
2019-03-13T16:45:22.529Z,86.25
2019-03-13T16:47:51.126Z,86.44
2019-03-13T16:50:38.797Z,86.66
2019-03-13T16:53:07.416Z,87.08
2019-03-13T16:55:36.025Z,86.85
2019-03-13T16:58:04.753Z,86.64
2019-03-13T17:00:34.259Z,86.75
2019-03-13T17:03:02.861Z,86.92
2019-03-13T17:05:31.394Z,87.10
2019-03-13T17:07:59.986Z,87.00
2019-03-13T17:10:32.425Z,86.59
2019-03-13T17:13:00.894Z,86.50
2019-03-13T17:15:32.455Z,86.68
2019-03-13T17:18:00.924Z,86.93
2019-03-13T17:20:35.524Z,87.07
2019-03-13T17:23:03.741Z,87.25
2019-03-13T17:25:32.255Z,87.48
2019-03-13T17:28:02.680Z,86.58
2019-03-13T17:30:32.548Z,87.21
2019-03-13T17:33:02.298Z,87.35
2019-03-13T17:35:30.872Z,87.38
2019-03-13T17:37:59.468Z,87.48
2019-03-13T17:40:30.411Z,87.84
2019-03-13T17:42:59.119Z,87.93
2019-03-13T17:45:27.757Z,88.00
2019-03-13T17:47:56.326Z,87.68
2019-03-13T17:50:25.327Z,87.80
2019-03-13T17:52:54.232Z,87.87
2019-03-13T17:55:30.628Z,88.08
2019-03-13T17:57:59.143Z,88.11
2019-03-13T18:00:31.094Z,88.08
2019-03-13T18:02:59.652Z,88.10
2019-03-13T18:05:31.167Z,88.21
2019-03-13T18:07:59.674Z,88.32
2019-03-13T18:10:28.140Z,88.37
2019-03-13T18:12:56.638Z,88.08
2019-03-13T18:15:25.439Z,87.90
2019-03-13T18:17:53.995Z,88.16
2019-03-13T18:20:24.196Z,88.37
2019-03-13T18:22:54.473Z,88.41
2019-03-13T18:25:25.680Z,88.58
2019-03-13T18:27:54.162Z,88.62
2019-03-13T18:30:38.798Z,88.68
2019-03-13T18:33:07.485Z,88.66
2019-03-13T18:35:36.200Z,88.70
2019-03-13T18:38:06.829Z,88.80
2019-03-13T18:40:35.322Z,88.27
2019-03-13T18:43:03.927Z,88.32
2019-03-13T18:45:56.793Z,88.23
2019-03-13T18:48:25.352Z,88.33
2019-03-13T18:50:55.175Z,87.95
2019-03-13T18:53:23.612Z,88.34
2019-03-13T18:55:53.954Z,88.62
2019-03-13T18:58:22.922Z,88.73
2019-03-13T19:00:51.519Z,89.08
2019-03-13T19:03:22.229Z,89.11
2019-03-13T19:05:50.366Z,89.33
2019-03-13T19:08:19.008Z,89.46
2019-03-13T19:10:47.600Z,89.55
2019-03-13T19:13:16.107Z,89.69
2019-03-13T19:15:44.819Z,89.65
2019-03-13T19:18:13.281Z,89.65
2019-03-13T19:20:43.325Z,89.57
2019-03-13T19:23:14.245Z,89.56
2019-03-13T19:25:42.575Z,89.50
2019-03-13T19:28:19.835Z,89.56
2019-03-13T19:30:48.393Z,89.44
2019-03-13T19:33:18.525Z,89.62
2019-03-13T19:35:48.216Z,89.69
2019-03-13T19:38:18.384Z,89.55
2019-03-13T19:40:46.926Z,89.46
2019-03-13T19:43:15.461Z,89.46
2019-03-13T19:45:45.399Z,89.35
2019-03-13T19:48:13.943Z,89.45
2019-03-13T19:50:42.472Z,89.41
2019-03-13T19:53:11.087Z,89.54
2019-03-13T19:55:42.696Z,89.67
2019-03-13T19:58:11.337Z,89.68
2019-03-13T20:00:39.910Z,89.54
2019-03-13T20:03:11.154Z,89.53
2019-03-13T20:05:45.903Z,89.47
2019-03-13T20:08:15.208Z,89.56
2019-03-13T20:10:43.777Z,89.38
2019-03-13T20:13:15.389Z,89.45
2019-03-13T20:15:45.350Z,89.34
2019-03-13T20:18:13.875Z,89.07
2019-03-13T20:20:42.875Z,89.06
2019-03-13T20:23:16.014Z,89.11
2019-03-13T20:25:47.612Z,89.02
2019-03-13T20:28:16.334Z,88.99
2019-03-13T20:30:47.787Z,89.21
2019-03-13T20:33:17.273Z,89.18
2019-03-13T20:35:45.738Z,89.20
2019-03-13T20:38:16.547Z,89.21
2019-03-13T20:40:46.585Z,89.28
2019-03-13T20:43:15.242Z,89.04
2019-03-13T20:45:46.381Z,89.18
2019-03-13T20:48:17.840Z,89.23
2019-03-13T20:50:49.310Z,89.36
2019-03-13T20:53:17.821Z,89.44
2019-03-13T20:55:46.306Z,89.60
2019-03-13T20:58:16.572Z,89.65
2019-03-13T21:03:17.925Z,89.65
2019-03-13T21:05:46.707Z,89.64
2019-03-13T21:08:17.491Z,89.71
2019-03-13T21:10:46.149Z,89.78
2019-03-13T21:13:16.138Z,89.76
2019-03-13T21:15:44.638Z,89.73
2019-03-13T21:18:14.646Z,89.82
2019-03-13T21:20:43.135Z,89.79
2019-03-13T21:23:11.632Z,89.63
2019-03-13T21:25:40.093Z,89.73
2019-03-13T21:28:08.567Z,89.57
2019-03-13T21:30:37.147Z,89.58
2019-03-13T21:33:05.608Z,89.44
2019-03-13T21:35:34.216Z,89.59
2019-03-13T21:38:07.012Z,89.63
2019-03-13T21:40:35.514Z,89.55
2019-03-13T21:43:06.728Z,89.58
2019-03-13T21:45:40.985Z,89.60
2019-03-13T21:48:05.428Z,89.65
2019-03-13T21:50:33.914Z,89.56
2019-03-13T21:53:02.717Z,89.68
2019-03-13T21:55:31.114Z,89.55
2019-03-13T21:57:59.607Z,89.61
2019-03-13T22:00:30.543Z,89.58
2019-03-13T22:03:03.866Z,89.53
2019-03-13T22:05:32.316Z,89.52
2019-03-13T22:08:01.896Z,89.53
2019-03-13T22:10:32.024Z,89.43
2019-03-13T22:13:02.258Z,89.55
2019-03-13T22:15:33.784Z,89.43
2019-03-13T22:18:02.383Z,89.44
2019-03-13T22:20:33.151Z,89.49
2019-03-13T22:23:01.635Z,89.42
2019-03-13T22:25:32.086Z,89.48
2019-03-13T22:28:00.566Z,89.52
2019-03-13T22:30:29.252Z,89.38
2019-03-13T22:32:57.932Z,89.45
2019-03-13T22:35:26.625Z,89.36
2019-03-13T22:37:55.166Z,89.22
2019-03-13T22:40:25.247Z,89.01
2019-03-13T22:42:53.815Z,88.99
2019-03-13T22:45:29.895Z,89.01
2019-03-13T22:47:58.936Z,88.91
2019-03-13T22:50:27.397Z,88.71
2019-03-13T22:53:03.548Z,88.87
2019-03-13T22:55:33.186Z,88.85
2019-03-13T22:58:01.749Z,88.77
2019-03-13T23:00:51.888Z,88.76
2019-03-13T23:03:22.503Z,88.73
2019-03-13T23:05:51.438Z,88.84
2019-03-13T23:08:20.776Z,88.39
2019-03-13T23:10:50.902Z,88.46
2019-03-13T23:13:20.360Z,88.60
2019-03-13T23:15:48.987Z,88.59
2019-03-13T23:18:18.543Z,88.41
2019-03-13T23:20:47.279Z,88.32
2019-03-13T23:23:15.831Z,88.24
2019-03-13T23:25:44.476Z,88.14
2019-03-13T23:28:16.150Z,88.36
2019-03-13T23:30:44.636Z,88.22
2019-03-13T23:33:13.277Z,88.14
2019-03-13T23:35:41.815Z,87.91
2019-03-13T23:38:10.409Z,88.04
2019-03-13T23:40:41.762Z,88.01
2019-03-13T23:43:11.390Z,87.73
2019-03-13T23:45:39.905Z,87.66
2019-03-13T23:48:09.201Z,87.43
2019-03-13T23:50:37.681Z,87.54
2019-03-13T23:53:07.727Z,87.43
2019-03-13T23:55:38.512Z,87.11
2019-03-13T23:58:11.340Z,86.58
